sensor_id;sensor_type;location;lat;lon;timestamp;P1;durP1;ratioP1;P2;durP2;ratioP2
17504;SDS011;8870;50.950;11.762;2023-04-03T00:04:17;4.28;;;1.42;;
17504;SDS011;8870;50.950;11.762;2023-04-03T00:09:35;3.78;;;1.15;;
17504;SDS011;8870;50.950;11.762;2023-04-03T00:15:09;3.00;;;1.20;;
17504;SDS011;8870;50.950;11.762;2023-04-03T00:20:28;4.30;;;1.40;;
17504;SDS011;8870;50.950;11.762;2023-04-03T00:26:01;3.75;;;1.17;;
17504;SDS011;8870;50.950;11.762;2023-04-03T00:31:22;3.53;;;1.30;;
17504;SDS011;8870;50.950;11.762;2023-04-03T00:36:53;3.50;;;1.13;;
17504;SDS011;8870;50.950;11.762;2023-04-03T00:42:11;2.75;;;1.40;;
17504;SDS011;8870;50.950;11.762;2023-04-03T00:47:46;3.17;;;1.40;;
17504;SDS011;8870;50.950;11.762;2023-04-03T00:53:04;4.32;;;1.30;;
17504;SDS011;8870;50.950;11.762;2023-04-03T00:58:40;3.70;;;1.50;;
17504;SDS011;8870;50.950;11.762;2023-04-03T01:10:02;4.03;;;1.30;;
17504;SDS011;8870;50.950;11.762;2023-04-03T01:15:23;5.30;;;1.67;;
17504;SDS011;8870;50.950;11.762;2023-04-03T01:26:54;3.17;;;1.60;;
17504;SDS011;8870;50.950;11.762;2023-04-03T01:32:30;4.25;;;1.65;;
17504;SDS011;8870;50.950;11.762;2023-04-03T01:37:48;5.43;;;1.63;;
17504;SDS011;8870;50.950;11.762;2023-04-03T01:43:19;4.78;;;1.80;;
17504;SDS011;8870;50.950;11.762;2023-04-03T01:48:42;4.32;;;1.70;;
17504;SDS011;8870;50.950;11.762;2023-04-03T01:54:13;6.13;;;2.00;;
17504;SDS011;8870;50.950;11.762;2023-04-03T01:59:31;5.68;;;1.90;;
17504;SDS011;8870;50.950;11.762;2023-04-03T02:05:08;5.35;;;2.10;;
17504;SDS011;8870;50.950;11.762;2023-04-03T02:10:26;7.93;;;2.13;;
17504;SDS011;8870;50.950;11.762;2023-04-03T02:15:57;5.05;;;2.05;;
17504;SDS011;8870;50.950;11.762;2023-04-03T02:21:18;7.82;;;2.10;;
17504;SDS011;8870;50.950;11.762;2023-04-03T02:26:50;4.63;;;2.00;;
17504;SDS011;8870;50.950;11.762;2023-04-03T02:32:08;6.95;;;2.30;;
17504;SDS011;8870;50.950;11.762;2023-04-03T02:37:42;6.45;;;2.13;;
17504;SDS011;8870;50.950;11.762;2023-04-03T02:43:01;5.20;;;2.40;;
17504;SDS011;8870;50.950;11.762;2023-04-03T02:48:32;6.35;;;2.30;;
17504;SDS011;8870;50.950;11.762;2023-04-03T02:53:53;7.88;;;2.38;;
17504;SDS011;8870;50.950;11.762;2023-04-03T02:59:28;5.28;;;1.95;;
17504;SDS011;8870;50.950;11.762;2023-04-03T03:04:47;6.25;;;2.00;;
17504;SDS011;8870;50.950;11.762;2023-04-03T03:10:22;7.20;;;2.00;;
17504;SDS011;8870;50.950;11.762;2023-04-03T03:15:42;3.65;;;1.67;;
17504;SDS011;8870;50.950;11.762;2023-04-03T03:21:13;6.45;;;2.00;;
17504;SDS011;8870;50.950;11.762;2023-04-03T03:26:34;4.03;;;1.60;;
17504;SDS011;8870;50.950;11.762;2023-04-03T03:32:08;5.68;;;1.65;;
17504;SDS011;8870;50.950;11.762;2023-04-03T03:37:26;5.15;;;1.63;;
17504;SDS011;8870;50.950;11.762;2023-04-03T03:43:02;3.90;;;1.42;;
17504;SDS011;8870;50.950;11.762;2023-04-03T03:48:22;5.40;;;1.80;;
17504;SDS011;8870;50.950;11.762;2023-04-03T03:53:53;3.63;;;1.40;;
17504;SDS011;8870;50.950;11.762;2023-04-03T03:59:16;3.80;;;1.60;;
17504;SDS011;8870;50.950;11.762;2023-04-03T04:04:48;5.57;;;1.58;;
17504;SDS011;8870;50.950;11.762;2023-04-03T04:10:07;5.82;;;1.70;;
17504;SDS011;8870;50.950;11.762;2023-04-03T04:15:43;5.97;;;1.70;;
17504;SDS011;8870;50.950;11.762;2023-04-03T04:21:02;5.25;;;1.55;;
17504;SDS011;8870;50.950;11.762;2023-04-03T04:26:34;7.07;;;2.03;;
17504;SDS011;8870;50.950;11.762;2023-04-03T04:31:57;6.65;;;1.80;;
17504;SDS011;8870;50.950;11.762;2023-04-03T04:37:31;4.55;;;1.75;;
17504;SDS011;8870;50.950;11.762;2023-04-03T04:42:51;9.40;;;1.95;;
17504;SDS011;8870;50.950;11.762;2023-04-03T04:48:26;6.90;;;2.38;;
17504;SDS011;8870;50.950;11.762;2023-04-03T04:53:45;6.13;;;2.15;;
17504;SDS011;8870;50.950;11.762;2023-04-03T04:59:16;8.45;;;1.90;;
17504;SDS011;8870;50.950;11.762;2023-04-03T05:04:39;5.82;;;1.65;;
17504;SDS011;8870;50.950;11.762;2023-04-03T05:10:11;6.60;;;1.83;;
17504;SDS011;8870;50.950;11.762;2023-04-03T05:15:29;6.07;;;1.50;;
17504;SDS011;8870;50.950;11.762;2023-04-03T05:21:07;4.88;;;2.00;;
17504;SDS011;8870;50.950;11.762;2023-04-03T05:26:26;6.15;;;1.75;;
17504;SDS011;8870;50.950;11.762;2023-04-03T05:31:57;6.68;;;2.00;;
17504;SDS011;8870;50.950;11.762;2023-04-03T05:37:18;6.15;;;1.83;;
17504;SDS011;8870;50.950;11.762;2023-04-03T05:42:50;6.60;;;2.20;;
17504;SDS011;8870;50.950;11.762;2023-04-03T05:48:13;6.13;;;2.38;;
17504;SDS011;8870;50.950;11.762;2023-04-03T05:53:47;4.32;;;1.85;;
17504;SDS011;8870;50.950;11.762;2023-04-03T05:59:09;4.55;;;1.75;;
17504;SDS011;8870;50.950;11.762;2023-04-03T06:04:43;4.15;;;1.63;;
17504;SDS011;8870;50.950;11.762;2023-04-03T06:10:06;2.85;;;1.60;;
17504;SDS011;8870;50.950;11.762;2023-04-03T06:15:37;5.18;;;1.70;;
17504;SDS011;8870;50.950;11.762;2023-04-03T06:20:56;5.78;;;1.73;;
17504;SDS011;8870;50.950;11.762;2023-04-03T06:26:32;5.18;;;1.70;;
17504;SDS011;8870;50.950;11.762;2023-04-03T06:31:51;3.35;;;1.83;;
17504;SDS011;8870;50.950;11.762;2023-04-03T06:37:23;5.28;;;1.60;;
17504;SDS011;8870;50.950;11.762;2023-04-03T06:42:46;4.40;;;1.65;;
17504;SDS011;8870;50.950;11.762;2023-04-03T06:48:19;4.50;;;1.48;;
17504;SDS011;8870;50.950;11.762;2023-04-03T06:53:38;5.15;;;1.50;;
17504;SDS011;8870;50.950;11.762;2023-04-03T06:59:12;5.35;;;2.13;;
17504;SDS011;8870;50.950;11.762;2023-04-03T07:04:31;6.25;;;2.20;;
17504;SDS011;8870;50.950;11.762;2023-04-03T07:10:03;5.32;;;2.22;;
17504;SDS011;8870;50.950;11.762;2023-04-03T07:15:24;5.32;;;2.50;;
17504;SDS011;8870;50.950;11.762;2023-04-03T07:20:58;3.75;;;2.10;;
17504;SDS011;8870;50.950;11.762;2023-04-03T07:26:16;7.13;;;2.25;;
17504;SDS011;8870;50.950;11.762;2023-04-03T07:31:51;6.60;;;3.17;;
17504;SDS011;8870;50.950;11.762;2023-04-03T07:37:10;7.90;;;3.47;;
17504;SDS011;8870;50.950;11.762;2023-04-03T07:42:42;6.75;;;2.53;;
17504;SDS011;8870;50.950;11.762;2023-04-03T07:48:04;5.57;;;3.00;;
17504;SDS011;8870;50.950;11.762;2023-04-03T07:53:37;8.98;;;3.78;;
17504;SDS011;8870;50.950;11.762;2023-04-03T07:58:55;5.05;;;2.55;;
17504;SDS011;8870;50.950;11.762;2023-04-03T08:04:29;8.50;;;2.80;;
17504;SDS011;8870;50.950;11.762;2023-04-03T08:09:47;5.68;;;2.50;;
17504;SDS011;8870;50.950;11.762;2023-04-03T08:15:18;3.28;;;2.00;;
17504;SDS011;8870;50.950;11.762;2023-04-03T08:20:39;3.70;;;1.70;;
17504;SDS011;8870;50.950;11.762;2023-04-03T08:26:12;6.53;;;1.80;;
17504;SDS011;8870;50.950;11.762;2023-04-03T08:31:44;3.17;;;1.30;;
17504;SDS011;8870;50.950;11.762;2023-04-03T08:37:07;5.53;;;1.40;;
17504;SDS011;8870;50.950;11.762;2023-04-03T08:42:42;3.47;;;1.00;;
17504;SDS011;8870;50.950;11.762;2023-04-03T08:48:11;1.48;;;0.90;;
17504;SDS011;8870;50.950;11.762;2023-04-03T08:53:50;2.75;;;0.93;;
17504;SDS011;8870;50.950;11.762;2023-04-03T08:59:14;2.05;;;0.90;;
17504;SDS011;8870;50.950;11.762;2023-04-03T09:04:54;1.95;;;0.70;;
17504;SDS011;8870;50.950;11.762;2023-04-03T09:10:15;2.92;;;0.90;;
17504;SDS011;8870;50.950;11.762;2023-04-03T09:15:55;4.97;;;1.08;;
17504;SDS011;8870;50.950;11.762;2023-04-03T09:21:30;2.20;;;0.95;;
17504;SDS011;8870;50.950;11.762;2023-04-03T09:26:55;2.38;;;0.90;;
17504;SDS011;8870;50.950;11.762;2023-04-03T09:32:30;1.88;;;0.90;;
17504;SDS011;8870;50.950;11.762;2023-04-03T09:37:50;2.85;;;1.00;;
17504;SDS011;8870;50.950;11.762;2023-04-03T09:43:28;2.38;;;0.95;;
17504;SDS011;8870;50.950;11.762;2023-04-03T09:48:49;3.35;;;1.10;;
17504;SDS011;8870;50.950;11.762;2023-04-03T09:54:24;3.42;;;1.40;;
17504;SDS011;8870;50.950;11.762;2023-04-03T09:59:59;1.95;;;0.90;;
17504;SDS011;8870;50.950;11.762;2023-04-03T10:05:36;2.50;;;0.70;;
17504;SDS011;8870;50.950;11.762;2023-04-03T10:11:09;2.33;;;1.00;;
17504;SDS011;8870;50.950;11.762;2023-04-03T10:16:50;1.92;;;0.63;;
17504;SDS011;8870;50.950;11.762;2023-04-03T10:22:21;2.15;;;0.80;;
17504;SDS011;8870;50.950;11.762;2023-04-03T10:28:00;1.10;;;0.77;;
17504;SDS011;8870;50.950;11.762;2023-04-03T10:33:31;2.15;;;0.80;;
17504;SDS011;8870;50.950;11.762;2023-04-03T10:39:14;2.67;;;0.70;;
17504;SDS011;8870;50.950;11.762;2023-04-03T10:44:48;2.67;;;0.90;;
17504;SDS011;8870;50.950;11.762;2023-04-03T10:50:29;3.35;;;0.80;;
17504;SDS011;8870;50.950;11.762;2023-04-03T10:55:56;1.77;;;0.80;;
17504;SDS011;8870;50.950;11.762;2023-04-03T11:01:35;3.70;;;0.63;;
17504;SDS011;8870;50.950;11.762;2023-04-03T11:07:01;2.70;;;0.68;;
17504;SDS011;8870;50.950;11.762;2023-04-03T11:12:41;4.30;;;0.90;;
17504;SDS011;8870;50.950;11.762;2023-04-03T11:18:02;1.55;;;0.70;;
17504;SDS011;8870;50.950;11.762;2023-04-03T11:23:42;1.43;;;0.80;;
17504;SDS011;8870;50.950;11.762;2023-04-03T11:29:04;3.00;;;0.85;;
17504;SDS011;8870;50.950;11.762;2023-04-03T11:34:49;3.05;;;0.90;;
17504;SDS011;8870;50.950;11.762;2023-04-03T11:40:21;1.13;;;0.60;;
17504;SDS011;8870;50.950;11.762;2023-04-03T11:45:56;1.67;;;0.70;;
17504;SDS011;8870;50.950;11.762;2023-04-03T12:03:01;1.15;;;0.80;;
17504;SDS011;8870;50.950;11.762;2023-04-03T12:08:43;4.15;;;0.80;;
17504;SDS011;8870;50.950;11.762;2023-04-03T12:14:03;1.50;;;0.80;;
17504;SDS011;8870;50.950;11.762;2023-04-03T12:19:38;1.45;;;0.70;;
17504;SDS011;8870;50.950;11.762;2023-04-03T12:25:40;1.70;;;0.83;;
17504;SDS011;8870;50.950;11.762;2023-04-03T12:36:42;2.50;;;0.82;;
17504;SDS011;8870;50.950;11.762;2023-04-03T12:42:29;2.13;;;0.90;;
17504;SDS011;8870;50.950;11.762;2023-04-03T12:47:57;2.22;;;0.90;;
17504;SDS011;8870;50.950;11.762;2023-04-03T12:53:31;2.58;;;0.98;;
17504;SDS011;8870;50.950;11.762;2023-04-03T12:58:51;4.25;;;0.82;;
17504;SDS011;8870;50.950;11.762;2023-04-03T13:04:23;3.45;;;0.80;;
17504;SDS011;8870;50.950;11.762;2023-04-03T13:09:48;1.38;;;0.77;;
17504;SDS011;8870;50.950;11.762;2023-04-03T13:15:27;2.45;;;1.00;;
17504;SDS011;8870;50.950;11.762;2023-04-03T13:20:48;5.40;;;1.00;;
17504;SDS011;8870;50.950;11.762;2023-04-03T13:26:24;2.80;;;0.90;;
17504;SDS011;8870;50.950;11.762;2023-04-03T13:31:57;1.75;;;1.00;;
17504;SDS011;8870;50.950;11.762;2023-04-03T13:37:22;4.22;;;1.20;;
17504;SDS011;8870;50.950;11.762;2023-04-03T13:43:01;2.77;;;1.00;;
17504;SDS011;8870;50.950;11.762;2023-04-03T13:48:21;2.78;;;0.90;;
17504;SDS011;8870;50.950;11.762;2023-04-03T13:53:53;2.15;;;0.90;;
17504;SDS011;8870;50.950;11.762;2023-04-03T13:59:23;3.20;;;1.05;;
17504;SDS011;8870;50.950;11.762;2023-04-03T14:04:58;2.15;;;0.85;;
17504;SDS011;8870;50.950;11.762;2023-04-03T14:10:19;1.45;;;0.65;;
17504;SDS011;8870;50.950;11.762;2023-04-03T14:15:55;1.40;;;0.90;;
17504;SDS011;8870;50.950;11.762;2023-04-03T14:21:23;1.40;;;0.77;;
17504;SDS011;8870;50.950;11.762;2023-04-03T14:26:54;2.85;;;1.00;;
17504;SDS011;8870;50.950;11.762;2023-04-03T14:32:32;1.85;;;0.80;;
17504;SDS011;8870;50.950;11.762;2023-04-03T14:37:51;3.28;;;0.90;;
17504;SDS011;8870;50.950;11.762;2023-04-03T14:43:23;2.00;;;0.90;;
17504;SDS011;8870;50.950;11.762;2023-04-03T14:48:48;2.17;;;0.90;;
17504;SDS011;8870;50.950;11.762;2023-04-03T14:54:20;1.63;;;0.80;;
17504;SDS011;8870;50.950;11.762;2023-04-03T14:59:44;1.63;;;0.77;;
17504;SDS011;8870;50.950;11.762;2023-04-03T15:05:18;1.63;;;0.80;;
17504;SDS011;8870;50.950;11.762;2023-04-03T15:10:37;2.38;;;0.80;;
17504;SDS011;8870;50.950;11.762;2023-04-03T15:16:12;3.25;;;0.77;;
17504;SDS011;8870;50.950;11.762;2023-04-03T15:21:37;2.22;;;1.00;;
17504;SDS011;8870;50.950;11.762;2023-04-03T15:27:10;1.90;;;0.90;;
17504;SDS011;8870;50.950;11.762;2023-04-03T15:32:41;2.33;;;1.00;;
17504;SDS011;8870;50.950;11.762;2023-04-03T15:38:02;2.08;;;0.90;;
17504;SDS011;8870;50.950;11.762;2023-04-03T15:43:34;2.00;;;0.75;;
17504;SDS011;8870;50.950;11.762;2023-04-03T15:48:53;1.85;;;0.80;;
17504;SDS011;8870;50.950;11.762;2023-04-03T15:54:26;1.40;;;0.73;;
17504;SDS011;8870;50.950;11.762;2023-04-03T15:59:45;2.33;;;0.80;;
17504;SDS011;8870;50.950;11.762;2023-04-03T16:05:16;2.55;;;0.98;;
17504;SDS011;8870;50.950;11.762;2023-04-03T16:10:37;2.38;;;0.85;;
17504;SDS011;8870;50.950;11.762;2023-04-03T16:16:09;2.15;;;0.90;;
17504;SDS011;8870;50.950;11.762;2023-04-03T16:21:28;1.67;;;0.82;;
17504;SDS011;8870;50.950;11.762;2023-04-03T16:27:02;1.60;;;0.80;;
17504;SDS011;8870;50.950;11.762;2023-04-03T16:32:35;1.45;;;0.93;;
17504;SDS011;8870;50.950;11.762;2023-04-03T16:37:55;0.80;;;0.80;;
17504;SDS011;8870;50.950;11.762;2023-04-03T16:43:29;1.02;;;0.65;;
17504;SDS011;8870;50.950;11.762;2023-04-03T16:48:48;1.33;;;0.70;;
17504;SDS011;8870;50.950;11.762;2023-04-03T16:54:39;0.93;;;0.70;;
17504;SDS011;8870;50.950;11.762;2023-04-03T17:00:04;1.50;;;0.85;;
17504;SDS011;8870;50.950;11.762;2023-04-03T17:05:49;1.40;;;0.73;;
17504;SDS011;8870;50.950;11.762;2023-04-03T17:11:07;6.47;;;2.45;;
17504;SDS011;8870;50.950;11.762;2023-04-03T17:16:41;1.85;;;0.93;;
17504;SDS011;8870;50.950;11.762;2023-04-03T17:22:01;1.40;;;0.70;;
17504;SDS011;8870;50.950;11.762;2023-04-03T17:27:32;1.60;;;0.77;;
17504;SDS011;8870;50.950;11.762;2023-04-03T17:32:52;2.60;;;0.90;;
17504;SDS011;8870;50.950;11.762;2023-04-03T17:38:24;1.70;;;0.80;;
17504;SDS011;8870;50.950;11.762;2023-04-03T17:43:43;1.20;;;0.70;;
17504;SDS011;8870;50.950;11.762;2023-04-03T17:49:19;2.42;;;0.95;;
17504;SDS011;8870;50.950;11.762;2023-04-03T17:54:39;2.47;;;0.75;;
17504;SDS011;8870;50.950;11.762;2023-04-03T18:00:10;1.40;;;0.90;;
17504;SDS011;8870;50.950;11.762;2023-04-03T18:05:32;2.30;;;1.00;;
17504;SDS011;8870;50.950;11.762;2023-04-03T18:11:05;2.55;;;0.75;;
17504;SDS011;8870;50.950;11.762;2023-04-03T18:16:28;1.63;;;0.77;;
17504;SDS011;8870;50.950;11.762;2023-04-03T18:22:05;2.50;;;0.90;;
17504;SDS011;8870;50.950;11.762;2023-04-03T18:27:35;1.33;;;0.80;;
17504;SDS011;8870;50.950;11.762;2023-04-03T18:33:05;0.90;;;0.70;;
17504;SDS011;8870;50.950;11.762;2023-04-03T18:38:26;1.65;;;0.80;;
17504;SDS011;8870;50.950;11.762;2023-04-03T18:43:58;3.88;;;0.90;;
17504;SDS011;8870;50.950;11.762;2023-04-03T18:49:20;1.98;;;0.90;;
17504;SDS011;8870;50.950;11.762;2023-04-03T18:54:53;2.25;;;1.00;;
17504;SDS011;8870;50.950;11.762;2023-04-03T19:00:12;1.15;;;0.75;;
17504;SDS011;8870;50.950;11.762;2023-04-03T19:05:44;1.67;;;1.00;;
17504;SDS011;8870;50.950;11.762;2023-04-03T19:11:05;0.80;;;0.60;;
17504;SDS011;8870;50.950;11.762;2023-04-03T19:16:37;1.08;;;0.70;;
17504;SDS011;8870;50.950;11.762;2023-04-03T19:21:55;1.27;;;0.93;;
17504;SDS011;8870;50.950;11.762;2023-04-03T19:27:30;1.50;;;0.82;;
17504;SDS011;8870;50.950;11.762;2023-04-03T19:33:03;2.63;;;0.95;;
17504;SDS011;8870;50.950;11.762;2023-04-03T19:38:21;1.58;;;0.93;;
17504;SDS011;8870;50.950;11.762;2023-04-03T19:43:55;4.30;;;0.90;;
17504;SDS011;8870;50.950;11.762;2023-04-03T19:49:14;1.38;;;0.95;;
17504;SDS011;8870;50.950;11.762;2023-04-03T19:54:45;1.60;;;0.80;;
17504;SDS011;8870;50.950;11.762;2023-04-03T20:00:06;3.70;;;0.90;;
17504;SDS011;8870;50.950;11.762;2023-04-03T20:05:38;1.75;;;0.90;;
17504;SDS011;8870;50.950;11.762;2023-04-03T20:10:56;2.28;;;1.00;;
17504;SDS011;8870;50.950;11.762;2023-04-03T20:16:29;1.77;;;0.90;;
17504;SDS011;8870;50.950;11.762;2023-04-03T20:21:48;1.52;;;0.80;;
17504;SDS011;8870;50.950;11.762;2023-04-03T20:27:20;2.22;;;0.82;;
17504;SDS011;8870;50.950;11.762;2023-04-03T20:32:55;1.05;;;0.90;;
17504;SDS011;8870;50.950;11.762;2023-04-03T20:38:14;1.08;;;0.70;;
17504;SDS011;8870;50.950;11.762;2023-04-03T20:43:46;1.10;;;0.80;;
17504;SDS011;8870;50.950;11.762;2023-04-03T20:49:06;3.05;;;1.00;;
17504;SDS011;8870;50.950;11.762;2023-04-03T20:54:39;2.60;;;0.80;;
17504;SDS011;8870;50.950;11.762;2023-04-03T20:59:58;1.95;;;0.90;;
17504;SDS011;8870;50.950;11.762;2023-04-03T21:05:32;1.67;;;0.90;;
17504;SDS011;8870;50.950;11.762;2023-04-03T21:22:15;2.05;;;0.82;;
17504;SDS011;8870;50.950;11.762;2023-04-03T21:27:48;1.67;;;1.05;;
17504;SDS011;8870;50.950;11.762;2023-04-03T21:33:20;1.35;;;0.82;;
17504;SDS011;8870;50.950;11.762;2023-04-03T21:38:40;2.60;;;1.00;;
17504;SDS011;8870;50.950;11.762;2023-04-03T21:44:13;1.27;;;1.00;;
17504;SDS011;8870;50.950;11.762;2023-04-03T21:49:33;1.80;;;0.90;;
17504;SDS011;8870;50.950;11.762;2023-04-03T21:55:08;3.63;;;1.00;;
17504;SDS011;8870;50.950;11.762;2023-04-03T22:06:03;2.40;;;1.05;;
17504;SDS011;8870;50.950;11.762;2023-04-03T22:11:24;1.73;;;0.80;;
17504;SDS011;8870;50.950;11.762;2023-04-03T22:16:59;1.65;;;0.82;;
17504;SDS011;8870;50.950;11.762;2023-04-03T22:22:18;1.33;;;0.90;;
17504;SDS011;8870;50.950;11.762;2023-04-03T22:27:51;1.50;;;1.00;;
17504;SDS011;8870;50.950;11.762;2023-04-03T22:33:23;1.60;;;0.80;;
17504;SDS011;8870;50.950;11.762;2023-04-03T22:38:41;1.20;;;1.00;;
17504;SDS011;8870;50.950;11.762;2023-04-03T22:44:14;1.48;;;1.00;;
17504;SDS011;8870;50.950;11.762;2023-04-03T22:49:39;1.20;;;0.90;;
17504;SDS011;8870;50.950;11.762;2023-04-03T22:55:10;3.88;;;1.00;;
17504;SDS011;8870;50.950;11.762;2023-04-03T23:00:32;1.20;;;0.90;;
17504;SDS011;8870;50.950;11.762;2023-04-03T23:06:04;2.63;;;1.02;;
17504;SDS011;8870;50.950;11.762;2023-04-03T23:11:23;2.33;;;0.98;;
17504;SDS011;8870;50.950;11.762;2023-04-03T23:16:56;1.27;;;1.00;;
17504;SDS011;8870;50.950;11.762;2023-04-03T23:22:19;1.50;;;1.00;;
17504;SDS011;8870;50.950;11.762;2023-04-03T23:27:51;1.83;;;0.95;;
17504;SDS011;8870;50.950;11.762;2023-04-03T23:33:27;1.55;;;0.90;;
17504;SDS011;8870;50.950;11.762;2023-04-03T23:38:46;1.20;;;0.75;;
17504;SDS011;8870;50.950;11.762;2023-04-03T23:44:21;1.42;;;0.70;;
17504;SDS011;8870;50.950;11.762;2023-04-03T23:49:41;1.92;;;0.82;;
17504;SDS011;8870;50.950;11.762;2023-04-03T23:55:06;1.70;;;0.90;;
